Terminal Aerodrome Forecast
Issued by NWS Sioux Falls, SD

Home | Current Version | Previous Version | Graphics & Text | Print | Product List | Glossary On
Versions: 1 2 3 4 5 6 7 8 9 10 11 12 13 14
000
FTUS43 KFSD 211720
TAFHON
TAF
KHON 211720Z 2118/2218 35010G15KT P6SM FEW050
     FM212300 36006KT P6SM SKC
     FM220100 VRB03KT P6SM SKC
     FM221500 17005KT P6SM SKC
     FM221700 16009KT P6SM SCT250=

USA.gov is the U.S. government's official web portal to all federal, state and local government web resources and services.